createdAt,value
2022-11-23T00:00:29.423Z,18.13
2022-11-23T00:02:57.753Z,19.13
2022-11-23T00:05:26.214Z,20.40
2022-11-23T00:07:55.332Z,18.87
2022-11-23T00:10:23.615Z,18.77
2022-11-23T00:12:51.639Z,19.80
2022-11-23T00:15:19.676Z,22.43
2022-11-23T00:17:48.615Z,20.83
2022-11-23T00:20:17.041Z,22.83
2022-11-23T00:22:44.906Z,23.57
2022-11-23T00:25:14.302Z,20.47
2022-11-23T00:27:42.206Z,20.73
2022-11-23T00:30:11.519Z,21.80
2022-11-23T00:32:39.419Z,22.67
2022-11-23T00:35:07.698Z,19.30
2022-11-23T00:37:35.621Z,22.17
2022-11-23T00:40:03.548Z,24.37
2022-11-23T00:42:37.831Z,21.77
2022-11-23T00:45:06.861Z,23.10
2022-11-23T00:47:34.900Z,19.83
2022-11-23T00:50:02.960Z,22.70
2022-11-23T00:52:30.885Z,20.13
2022-11-23T00:54:58.754Z,20.90
2022-11-23T00:57:26.653Z,23.30
2022-11-23T00:59:55.972Z,19.97
2022-11-23T01:02:23.908Z,19.57
2022-11-23T01:04:51.811Z,18.87
2022-11-23T01:07:19.842Z,19.13
2022-11-23T01:09:48.236Z,22.33
2022-11-23T01:12:16.122Z,22.83
2022-11-23T01:14:43.995Z,24.67
2022-11-23T01:17:13.361Z,26.17
2022-11-23T01:19:41.317Z,24.77
2022-11-23T01:22:09.198Z,24.30
2022-11-23T01:24:37.475Z,23.03
2022-11-23T01:27:05.483Z,24.13
2022-11-23T01:29:33.816Z,21.30
2022-11-23T01:32:01.879Z,23.63
2022-11-23T01:34:31.164Z,23.53
2022-11-23T01:36:59.193Z,23.03
2022-11-23T01:39:27.137Z,24.93
2022-11-23T01:41:55.045Z,23.33
2022-11-23T01:44:29.390Z,23.30
2022-11-23T01:46:59.408Z,24.33
2022-11-23T01:49:29.985Z,22.50
2022-11-23T01:52:04.256Z,23.63
2022-11-23T01:54:35.751Z,20.83
2022-11-23T01:57:07.723Z,24.30
2022-11-23T01:59:37.327Z,22.33
2022-11-23T02:02:05.811Z,21.17
2022-11-23T02:04:36.575Z,19.20
2022-11-23T02:07:06.866Z,17.90
2022-11-23T02:09:36.920Z,20.33
2022-11-23T02:12:08.201Z,21.33
2022-11-23T02:14:36.210Z,20.20
2022-11-23T02:17:04.128Z,20.20
2022-11-23T02:19:40.514Z,22.40
2022-11-23T02:22:15.865Z,20.37
2022-11-23T02:24:50.664Z,23.23
2022-11-23T02:27:20.608Z,21.80
2022-11-23T02:29:49.660Z,23.87
2022-11-23T02:32:23.163Z,17.60
2022-11-23T02:34:51.466Z,19.10
2022-11-23T02:37:19.817Z,21.97
2022-11-23T02:39:50.847Z,22.13
2022-11-23T02:42:20.197Z,22.13
2022-11-23T02:44:58.084Z,19.63
2022-11-23T02:47:26.068Z,19.90
2022-11-23T02:49:54.006Z,20.23
2022-11-23T02:52:22.028Z,21.43
2022-11-23T02:54:49.875Z,20.43
2022-11-23T02:57:19.124Z,20.33
2022-11-23T02:59:47.031Z,21.00
2022-11-23T03:02:14.896Z,20.20
2022-11-23T03:04:42.783Z,20.37
2022-11-23T03:07:10.754Z,23.40
2022-11-23T03:09:38.678Z,22.63
2022-11-23T03:12:06.999Z,24.10
2022-11-23T03:14:38.748Z,22.10
2022-11-23T03:17:06.815Z,20.90
2022-11-23T03:19:35.081Z,20.63
2022-11-23T03:22:03.184Z,24.00
2022-11-23T03:24:31.419Z,21.83
2022-11-23T03:26:59.470Z,22.63
2022-11-23T03:29:27.349Z,25.20
2022-11-23T03:31:56.715Z,19.90
2022-11-23T03:34:24.823Z,23.50
2022-11-23T03:36:52.830Z,21.77
2022-11-23T03:39:20.767Z,20.30
2022-11-23T03:41:48.659Z,20.93
2022-11-23T03:44:16.676Z,18.80
2022-11-23T03:46:44.591Z,18.30
2022-11-23T03:49:13.903Z,20.13
2022-11-23T03:51:41.795Z,19.90
2022-11-23T03:54:09.812Z,17.53
2022-11-23T03:56:37.758Z,18.40
2022-11-23T03:59:05.648Z,21.10
2022-11-23T04:01:33.581Z,19.23
2022-11-23T04:04:01.681Z,19.40
2022-11-23T04:06:31.054Z,20.43
2022-11-23T04:09:02.005Z,18.60
2022-11-23T04:11:30.508Z,20.60
2022-11-23T04:13:58.376Z,20.13
2022-11-23T04:16:26.266Z,21.97
2022-11-23T04:18:54.164Z,18.73
2022-11-23T04:21:22.146Z,19.20
2022-11-23T04:23:51.406Z,20.00
2022-11-23T04:26:19.295Z,21.07
2022-11-23T04:28:47.313Z,18.80
2022-11-23T04:31:15.194Z,21.50
2022-11-23T04:33:43.087Z,19.37
2022-11-23T04:36:11.087Z,20.83
2022-11-23T04:38:38.956Z,20.03
2022-11-23T04:41:08.268Z,19.60
2022-11-23T04:43:36.183Z,19.93
2022-11-23T04:46:04.100Z,22.20
2022-11-23T04:48:32.912Z,20.53
2022-11-23T04:51:00.795Z,22.60
2022-11-23T04:53:28.731Z,23.03
2022-11-23T04:55:56.683Z,24.10
2022-11-23T04:58:26.936Z,22.10
2022-11-23T05:00:58.415Z,22.00
2022-11-23T05:03:27.144Z,20.47
2022-11-23T05:05:55.228Z,22.10
2022-11-23T05:08:23.118Z,21.47
2022-11-23T05:10:51.027Z,22.10
2022-11-23T05:13:18.876Z,20.20
2022-11-23T05:15:48.185Z,20.23
2022-11-23T05:18:16.155Z,20.83
2022-11-23T05:20:44.026Z,22.60
2022-11-23T05:23:12.171Z,21.73
2022-11-23T05:25:40.285Z,25.13
2022-11-23T05:28:37.952Z,21.43
2022-11-23T05:30:57.579Z,21.10
2022-11-23T05:33:25.493Z,22.90
2022-11-23T05:35:53.378Z,22.27
2022-11-23T05:38:21.316Z,23.03
2022-11-23T05:40:49.196Z,22.07
2022-11-23T05:43:17.094Z,21.07
2022-11-23T05:45:45.015Z,22.10
2022-11-23T05:48:14.264Z,18.93
2022-11-23T05:50:42.173Z,20.97
2022-11-23T05:53:11.026Z,19.50
2022-11-23T05:55:39.058Z,19.07
2022-11-23T05:58:06.927Z,20.47
2022-11-23T06:00:34.771Z,18.70
2022-11-23T06:03:03.434Z,19.57
2022-11-23T06:05:33.087Z,20.33
2022-11-23T06:08:00.950Z,18.20
2022-11-23T06:10:28.839Z,19.23
2022-11-23T06:12:56.741Z,18.77
2022-11-23T06:15:24.788Z,18.67
2022-11-23T06:17:52.667Z,21.90
2022-11-23T06:20:20.683Z,17.77
2022-11-23T06:22:54.558Z,18.83
2022-11-23T06:25:23.218Z,21.90
2022-11-23T06:27:55.989Z,20.53
2022-11-23T06:30:24.193Z,20.87
2022-11-23T06:32:52.122Z,22.63
2022-11-23T06:35:20.108Z,20.60
2022-11-23T06:37:53.677Z,22.00
2022-11-23T06:40:23.471Z,20.77
2022-11-23T06:42:51.345Z,17.97
2022-11-23T06:45:21.936Z,21.13
2022-11-23T06:47:49.953Z,19.27
2022-11-23T06:50:17.862Z,21.00
2022-11-23T06:52:45.755Z,18.73
2022-11-23T06:55:13.842Z,17.17
2022-11-23T06:57:43.063Z,20.03
2022-11-23T07:00:12.362Z,21.47
2022-11-23T07:02:41.128Z,19.13
2022-11-23T07:05:09.808Z,18.73
2022-11-23T07:07:37.769Z,19.40
2022-11-23T07:10:09.933Z,20.77
2022-11-23T07:12:37.856Z,21.30
2022-11-23T07:15:08.789Z,19.13
2022-11-23T07:17:40.084Z,20.10
2022-11-23T07:20:09.853Z,19.97
2022-11-23T07:22:37.813Z,20.47
2022-11-23T07:25:06.748Z,19.80
2022-11-23T07:27:34.676Z,17.70
2022-11-23T07:30:02.901Z,19.33
2022-11-23T07:32:32.201Z,18.00
2022-11-23T07:35:00.171Z,18.87
2022-11-23T07:37:28.436Z,18.03
2022-11-23T07:39:58.089Z,16.13
2022-11-23T07:42:38.194Z,17.93
2022-11-23T07:45:11.863Z,20.37
2022-11-23T07:47:41.452Z,18.60
2022-11-23T07:50:10.955Z,16.53
2022-11-23T07:52:39.261Z,16.70
2022-11-23T07:55:07.860Z,17.37
2022-11-23T07:57:35.850Z,19.13
2022-11-23T08:00:04.921Z,16.93
2022-11-23T08:02:32.887Z,18.23
2022-11-23T08:05:02.207Z,18.00
2022-11-23T08:07:30.112Z,16.23
2022-11-23T08:09:58.007Z,17.67
2022-11-23T08:12:25.916Z,18.90
2022-11-23T08:14:53.795Z,18.13
2022-11-23T08:17:21.718Z,18.53
2022-11-23T08:19:50.735Z,17.10
2022-11-23T08:22:20.004Z,16.90
2022-11-23T08:24:48.065Z,18.77
2022-11-23T08:27:16.562Z,17.00
2022-11-23T08:29:44.617Z,19.93
2022-11-23T08:32:13.019Z,17.73
2022-11-23T08:34:40.893Z,16.83
2022-11-23T08:37:08.788Z,18.60
2022-11-23T08:39:38.074Z,18.43
2022-11-23T08:42:06.033Z,18.90
2022-11-23T08:44:34.406Z,18.13
2022-11-23T08:47:02.896Z,17.83
2022-11-23T08:49:30.875Z,16.97
2022-11-23T08:51:59.863Z,17.30
2022-11-23T08:54:27.751Z,17.40
2022-11-23T08:56:58.036Z,19.23
2022-11-23T08:59:26.223Z,17.00
2022-11-23T09:01:54.230Z,18.57
2022-11-23T09:04:22.279Z,17.67
2022-11-23T09:06:50.229Z,18.73
2022-11-23T09:09:18.139Z,19.80
2022-11-23T09:11:46.331Z,20.03
2022-11-23T09:14:15.688Z,19.40
2022-11-23T09:16:43.745Z,19.03
2022-11-23T09:19:14.587Z,17.60
2022-11-23T09:21:43.098Z,18.53
2022-11-23T09:24:12.642Z,18.33
2022-11-23T09:26:40.872Z,20.10
2022-11-23T09:29:09.611Z,19.40
2022-11-23T09:31:39.410Z,20.93
2022-11-23T09:34:07.527Z,18.87
2022-11-23T09:36:35.415Z,19.00
2022-11-23T09:39:03.323Z,19.10
2022-11-23T09:42:00.404Z,20.87
2022-11-23T09:44:41.855Z,19.60
2022-11-23T09:47:29.874Z,19.33
2022-11-23T09:50:11.560Z,20.27
2022-11-23T09:52:43.892Z,20.97
2022-11-23T09:55:17.562Z,19.80
2022-11-23T09:57:48.260Z,21.10
2022-11-23T10:00:21.008Z,19.13
2022-11-23T10:02:50.524Z,21.20
2022-11-23T10:05:20.990Z,20.67
2022-11-23T10:08:04.328Z,21.50
2022-11-23T10:10:42.600Z,20.93
2022-11-23T10:13:35.599Z,18.67
2022-11-23T10:16:20.398Z,18.97
2022-11-23T10:18:58.630Z,19.73
2022-11-23T10:21:35.965Z,19.80
2022-11-23T10:24:16.111Z,19.27
2022-11-23T10:26:46.312Z,19.50
2022-11-23T10:29:16.985Z,21.17
2022-11-23T10:31:51.504Z,20.90
2022-11-23T10:34:37.226Z,19.37
2022-11-23T10:37:09.221Z,19.93
2022-11-23T10:39:37.124Z,22.30
2022-11-23T10:42:15.868Z,19.37
2022-11-23T10:44:47.232Z,19.80
2022-11-23T10:47:36.214Z,19.90
2022-11-23T10:50:22.079Z,18.17
2022-11-23T10:52:56.459Z,21.37
2022-11-23T10:55:29.808Z,18.90
2022-11-23T10:57:58.585Z,19.27
2022-11-23T11:00:30.902Z,18.47
2022-11-23T11:03:00.404Z,19.13
2022-11-23T11:08:22.835Z,16.63
2022-11-23T11:10:58.622Z,18.43
2022-11-23T11:13:29.912Z,17.80
2022-11-23T11:16:00.295Z,16.97
2022-11-23T11:18:30.851Z,17.63
2022-11-23T11:21:03.580Z,16.17
2022-11-23T11:23:32.703Z,17.00
2022-11-23T11:26:06.657Z,16.70
2022-11-23T11:28:37.615Z,17.43
2022-11-23T11:31:20.887Z,17.27
2022-11-23T11:33:56.064Z,16.90
2022-11-23T11:36:27.391Z,16.03
2022-11-23T11:39:17.551Z,15.53
2022-11-23T11:41:50.205Z,15.90
2022-11-23T11:44:22.808Z,15.13
2022-11-23T11:46:56.065Z,16.73
2022-11-23T11:49:29.701Z,15.33
2022-11-23T11:52:05.994Z,15.43
2022-11-23T11:54:41.019Z,15.33
2022-11-23T11:57:19.112Z,16.40
2022-11-23T11:59:50.362Z,16.20
2022-11-23T12:02:25.388Z,15.83
2022-11-23T12:05:06.899Z,14.80
2022-11-23T12:07:40.805Z,15.70
2022-11-23T12:10:16.838Z,15.87
2022-11-23T12:12:44.834Z,15.50
2022-11-23T12:15:47.780Z,15.37
2022-11-23T12:18:26.962Z,16.27
2022-11-23T12:21:03.043Z,14.60
2022-11-23T12:23:44.121Z,14.63
2022-11-23T12:26:22.950Z,15.67
2022-11-23T12:29:18.445Z,15.80
2022-11-23T12:31:50.272Z,16.17
2022-11-23T12:34:33.417Z,13.90
2022-11-23T12:37:29.709Z,15.70
2022-11-23T12:40:30.993Z,13.47
2022-11-23T12:43:03.918Z,15.17
2022-11-23T12:45:51.588Z,15.20
2022-11-23T12:48:51.184Z,13.43
2022-11-23T12:51:34.840Z,14.10
2022-11-23T12:54:18.641Z,13.60
2022-11-23T12:57:00.363Z,15.07
2022-11-23T12:59:38.643Z,15.17
2022-11-23T13:02:14.675Z,14.73
2022-11-23T13:05:27.110Z,14.03
2022-11-23T13:08:19.359Z,14.70
2022-11-23T13:10:58.884Z,14.10
2022-11-23T13:13:59.321Z,13.73
2022-11-23T13:16:39.561Z,14.63
2022-11-23T13:19:27.712Z,15.57
2022-11-23T13:21:56.033Z,16.50
2022-11-23T13:24:32.301Z,16.73
2022-11-23T13:27:32.417Z,17.77
2022-11-23T13:30:11.076Z,16.40
2022-11-23T13:32:55.967Z,14.03
2022-11-23T13:35:50.542Z,14.73
2022-11-23T13:38:43.271Z,16.00
2022-11-23T13:41:53.826Z,16.57
2022-11-23T13:44:24.582Z,13.93
2022-11-23T13:47:23.462Z,16.93
2022-11-23T13:49:52.941Z,17.60
2022-11-23T13:52:32.391Z,15.60
2022-11-23T13:55:21.692Z,17.27
2022-11-23T13:58:22.962Z,16.43
2022-11-23T14:00:52.679Z,15.20
2022-11-23T14:03:51.114Z,16.53
2022-11-23T14:06:27.149Z,16.40
2022-11-23T14:09:02.202Z,16.90
2022-11-23T14:11:31.691Z,16.53
2022-11-23T14:14:04.268Z,18.13
2022-11-23T14:17:06.214Z,19.50
2022-11-23T14:19:47.071Z,16.90
2022-11-23T14:22:25.990Z,17.67
2022-11-23T14:25:14.317Z,18.27
2022-11-23T14:27:52.971Z,18.60
2022-11-23T14:30:34.694Z,17.60
2022-11-23T14:33:16.799Z,19.47
2022-11-23T14:35:52.064Z,19.80
2022-11-23T14:38:39.996Z,15.27
2022-11-23T14:41:10.864Z,14.20
2022-11-23T14:43:42.870Z,12.70
2022-11-23T14:46:19.383Z,16.53
2022-11-23T14:48:48.140Z,12.07
2022-11-23T14:51:20.344Z,13.10
2022-11-23T14:53:50.843Z,14.03
2022-11-23T14:56:27.372Z,14.53
2022-11-23T14:59:00.740Z,14.80
2022-11-23T15:01:29.240Z,12.43
2022-11-23T15:03:58.441Z,12.20
2022-11-23T15:06:34.182Z,13.70
2022-11-23T15:09:09.886Z,13.03
2022-11-23T15:11:39.460Z,12.37
2022-11-23T15:14:19.613Z,13.33
2022-11-23T15:16:49.563Z,13.23
2022-11-23T15:19:27.395Z,13.97
2022-11-23T15:21:57.010Z,14.47
2022-11-23T15:24:27.017Z,14.47
2022-11-23T15:27:12.381Z,14.57
2022-11-23T15:29:40.945Z,13.77
2022-11-23T15:32:33.279Z,14.73
2022-11-23T15:35:04.477Z,14.67
2022-11-23T15:37:38.824Z,16.63
2022-11-23T15:40:13.178Z,14.37
2022-11-23T15:42:41.680Z,14.03
2022-11-23T15:45:37.191Z,16.23
2022-11-23T15:48:07.545Z,13.80
2022-11-23T15:50:37.711Z,13.00
2022-11-23T15:53:09.300Z,15.93
2022-11-23T15:55:37.268Z,15.83
2022-11-23T15:58:08.748Z,11.93
2022-11-23T16:00:37.852Z,11.57
2022-11-23T16:03:31.895Z,12.77
2022-11-23T16:06:25.853Z,21.23
2022-11-23T16:08:55.156Z,15.83
2022-11-23T16:11:30.880Z,14.17
2022-11-23T16:14:17.025Z,15.27
2022-11-23T16:16:46.797Z,12.90
2022-11-23T16:19:24.523Z,13.50
2022-11-23T16:22:01.787Z,16.70
2022-11-23T16:24:34.049Z,24.27
2022-11-23T16:27:02.648Z,26.80
2022-11-23T16:29:37.156Z,30.47
2022-11-23T16:32:07.290Z,38.30
2022-11-23T16:34:35.778Z,35.87
2022-11-23T16:37:04.900Z,37.43
2022-11-23T16:39:35.003Z,35.20
2022-11-23T16:42:03.040Z,30.60
2022-11-23T16:44:34.281Z,35.70
2022-11-23T16:47:19.899Z,38.77
2022-11-23T16:49:50.778Z,47.43
2022-11-23T16:52:19.389Z,83.60
2022-11-23T16:54:48.731Z,63.13
2022-11-23T16:57:25.270Z,43.97
2022-11-23T16:59:53.423Z,45.70
2022-11-23T17:02:21.526Z,33.43
2022-11-23T17:04:49.517Z,63.33
2022-11-23T17:07:17.950Z,80.07
2022-11-23T17:09:46.172Z,35.70
2022-11-23T17:12:18.811Z,29.07
2022-11-23T17:14:48.920Z,31.73
2022-11-23T17:17:20.502Z,27.53
2022-11-23T17:19:49.744Z,29.40
2022-11-23T17:22:18.731Z,29.40
2022-11-23T17:24:47.275Z,26.53
2022-11-23T17:27:20.520Z,27.30
2022-11-23T17:29:48.851Z,45.10
2022-11-23T17:32:16.759Z,49.43
2022-11-23T17:34:44.608Z,48.33
2022-11-23T17:37:18.758Z,46.87
2022-11-23T17:39:47.564Z,36.53
2022-11-23T17:42:17.006Z,31.43
2022-11-23T17:44:44.997Z,28.83
2022-11-23T17:47:25.624Z,28.70
2022-11-23T17:49:53.757Z,26.47
2022-11-23T17:52:21.813Z,22.70
2022-11-23T17:54:49.708Z,24.73
2022-11-23T17:57:23.308Z,25.30
2022-11-23T17:59:51.691Z,25.83
2022-11-23T18:02:20.054Z,23.70
2022-11-23T18:04:48.206Z,25.47
2022-11-23T18:07:17.177Z,24.73
2022-11-23T18:09:45.186Z,29.80
2022-11-23T18:12:13.179Z,37.93
2022-11-23T18:14:42.444Z,25.27
2022-11-23T18:17:10.294Z,22.20
2022-11-23T18:19:38.243Z,22.10
2022-11-23T18:22:06.100Z,20.30
2022-11-23T18:24:33.997Z,21.73
2022-11-23T18:27:01.952Z,20.47
2022-11-23T18:29:30.095Z,23.53
2022-11-23T18:31:59.584Z,20.33
2022-11-23T18:34:27.712Z,22.23
2022-11-23T18:36:55.629Z,22.07
2022-11-23T18:39:23.531Z,21.73
2022-11-23T18:41:51.466Z,22.83
2022-11-23T18:44:19.343Z,24.53
2022-11-23T18:46:47.432Z,23.53
2022-11-23T18:49:16.775Z,22.17
2022-11-23T18:51:44.631Z,24.50
2022-11-23T18:54:12.667Z,24.50
2022-11-23T18:56:40.543Z,24.77
2022-11-23T18:59:15.547Z,25.93
2022-11-23T19:01:51.951Z,24.57
2022-11-23T19:04:21.276Z,23.97
2022-11-23T19:06:49.142Z,27.37
2022-11-23T19:09:17.062Z,26.17
2022-11-23T19:11:44.910Z,23.67
2022-11-23T19:14:12.821Z,28.90
2022-11-23T19:16:40.684Z,26.07
2022-11-23T19:19:09.158Z,23.50
2022-11-23T19:21:39.120Z,27.00
2022-11-23T19:24:08.430Z,27.17
2022-11-23T19:26:38.049Z,28.90
2022-11-23T19:29:05.988Z,26.53
2022-11-23T19:31:34.402Z,24.73
2022-11-23T19:34:05.716Z,22.63
2022-11-23T19:36:38.598Z,21.80
2022-11-23T19:39:08.292Z,22.40
2022-11-23T19:41:36.203Z,23.23
2022-11-23T19:44:04.265Z,25.50
2022-11-23T19:46:33.022Z,24.47
2022-11-23T19:49:01.022Z,22.73
2022-11-23T19:51:29.495Z,24.37
2022-11-23T19:54:00.970Z,25.77
2022-11-23T19:56:30.187Z,24.53
2022-11-23T19:58:59.999Z,25.20
2022-11-23T20:01:31.881Z,26.63
2022-11-23T20:04:08.730Z,23.93
2022-11-23T20:06:38.835Z,24.70
2022-11-23T20:09:09.756Z,24.30
2022-11-23T20:11:40.269Z,24.83
2022-11-23T20:14:09.134Z,27.13
2022-11-23T20:16:37.216Z,25.53
2022-11-23T20:19:07.321Z,24.47
2022-11-23T20:21:36.015Z,28.63
2022-11-23T20:24:06.046Z,25.83
2022-11-23T20:26:36.844Z,23.90
2022-11-23T20:29:06.393Z,27.43
2022-11-23T20:31:35.273Z,26.20
2022-11-23T20:34:07.143Z,27.87
2022-11-23T20:36:37.729Z,26.70
2022-11-23T20:39:08.378Z,26.47
2022-11-23T20:41:38.679Z,26.30
2022-11-23T20:44:08.435Z,25.97
2022-11-23T20:49:24.301Z,25.20
2022-11-23T20:51:52.188Z,27.87
2022-11-23T20:54:20.068Z,26.57
2022-11-23T20:56:49.359Z,33.00
2022-11-23T20:59:17.371Z,29.10
2022-11-23T21:01:45.652Z,30.90
2022-11-23T21:04:13.609Z,26.47
2022-11-23T21:06:41.657Z,26.97
2022-11-23T21:09:11.170Z,27.13
2022-11-23T21:11:56.727Z,27.93
2022-11-23T21:14:28.187Z,24.37
2022-11-23T21:16:58.614Z,25.17
2022-11-23T21:19:28.238Z,28.87
2022-11-23T21:21:56.893Z,27.53
2022-11-23T21:24:25.281Z,23.47
2022-11-23T21:26:53.187Z,28.07
2022-11-23T21:29:21.101Z,26.77
2022-11-23T21:31:51.000Z,27.97
2022-11-23T21:34:21.125Z,24.53
2022-11-23T21:36:49.724Z,29.30
2022-11-23T21:39:18.280Z,24.37
2022-11-23T21:41:47.530Z,24.60
2022-11-23T21:44:15.660Z,28.77
2022-11-23T21:46:43.999Z,29.00
2022-11-23T21:49:13.630Z,26.77
2022-11-23T21:51:42.792Z,28.87
2022-11-23T21:54:14.281Z,28.63
2022-11-23T21:56:42.825Z,32.37
2022-11-23T21:59:11.008Z,30.23
2022-11-23T22:01:39.882Z,29.67
2022-11-23T22:04:10.629Z,29.87
2022-11-23T22:06:42.014Z,30.50
2022-11-23T22:09:11.218Z,28.93
2022-11-23T22:11:41.179Z,29.90
2022-11-23T22:14:11.862Z,30.40
2022-11-23T22:16:42.007Z,29.80
2022-11-23T22:19:12.489Z,29.10
2022-11-23T22:21:43.923Z,26.73
2022-11-23T22:24:13.635Z,28.73
2022-11-23T22:26:41.716Z,28.40
2022-11-23T22:29:10.741Z,29.10
2022-11-23T22:31:39.492Z,27.73
2022-11-23T22:34:09.262Z,26.53
2022-11-23T22:36:37.240Z,27.83
2022-11-23T22:39:08.186Z,25.33
2022-11-23T22:41:37.961Z,26.33
2022-11-23T22:44:08.088Z,27.33
2022-11-23T22:46:36.550Z,29.97
2022-11-23T22:49:04.872Z,25.73
2022-11-23T22:51:32.789Z,25.33
2022-11-23T22:54:01.792Z,21.53
2022-11-23T22:56:31.903Z,28.37
2022-11-23T22:59:00.374Z,23.80
2022-11-23T23:01:30.231Z,26.10
2022-11-23T23:04:00.555Z,26.67
2022-11-23T23:06:30.447Z,20.73
2022-11-23T23:09:00.572Z,22.00
2022-11-23T23:11:31.999Z,21.70
2022-11-23T23:14:00.372Z,17.50
2022-11-23T23:16:28.709Z,19.70
2022-11-23T23:18:57.774Z,14.93
2022-11-23T23:21:27.016Z,10.67
2022-11-23T23:23:57.052Z,12.03
2022-11-23T23:26:26.309Z,9.67
2022-11-23T23:28:57.006Z,8.87
2022-11-23T23:31:25.361Z,8.07
2022-11-23T23:33:53.951Z,8.60
2022-11-23T23:36:23.980Z,8.67
2022-11-23T23:38:52.427Z,9.07
2022-11-23T23:41:20.938Z,8.73
2022-11-23T23:43:49.077Z,8.37
2022-11-23T23:46:18.479Z,9.53
2022-11-23T23:48:46.597Z,8.13
2022-11-23T23:51:15.814Z,8.63
2022-11-23T23:53:44.870Z,8.87
2022-11-23T23:56:15.097Z,9.20
2022-11-23T23:58:43.464Z,8.60
